Terminal Aerodrome Forecast
Issued by NWS Mobile, AL

Home | Current Version | Previous Version | Text Only | Print | Product List | Glossary On
Versions: 1 2 3 4 5 6 7 8 9 10 11 12 13 14 15 16 17 18 19 20 21 22 23 24 25 26 27 28 29 30 31 32 33 34 35 36 37 38 39 40 41 42 43 44 45
000
FTUS44 KMOB 230100 AAA
TAFPNS
TAF AMD
KPNS 230117Z 2301/2324 13005KT 5SM BR BKN012
      TEMPO 2301/2304 3/4SM BR BKN007
     FM230400 16007KT 1SM BR OVC003 PROB30 2312/2318 3SM TSRA BR
      OVC008CB
     FM231800 17012KT 3SM TSRA BR OVC008CB=

USA.gov is the U.S. government's official web portal to all federal, state and local government web resources and services.